sensor_id;sensor_type;location;lat;lon;timestamp;P1;durP1;ratioP1;P2;durP2;ratioP2
66272;SDS011;58450;52.150;4.466;2023-01-13T00:00:24;37.30;;;5.80;;
66272;SDS011;58450;52.150;4.466;2023-01-13T00:02:51;33.97;;;5.40;;
66272;SDS011;58450;52.150;4.466;2023-01-13T00:05:19;33.63;;;5.90;;
66272;SDS011;58450;52.150;4.466;2023-01-13T00:07:46;33.40;;;5.97;;
66272;SDS011;58450;52.150;4.466;2023-01-13T00:10:14;30.17;;;5.00;;
66272;SDS011;58450;52.150;4.466;2023-01-13T00:12:42;29.60;;;5.53;;
66272;SDS011;58450;52.150;4.466;2023-01-13T00:15:10;31.75;;;5.38;;
66272;SDS011;58450;52.150;4.466;2023-01-13T00:17:40;34.78;;;5.57;;
66272;SDS011;58450;52.150;4.466;2023-01-13T00:20:08;32.47;;;5.57;;
66272;SDS011;58450;52.150;4.466;2023-01-13T00:22:37;31.95;;;6.18;;
66272;SDS011;58450;52.150;4.466;2023-01-13T00:25:04;26.27;;;5.22;;
66272;SDS011;58450;52.150;4.466;2023-01-13T00:27:33;30.50;;;4.95;;
66272;SDS011;58450;52.150;4.466;2023-01-13T00:30:01;27.88;;;5.60;;
66272;SDS011;58450;52.150;4.466;2023-01-13T00:32:30;35.08;;;5.07;;
66272;SDS011;58450;52.150;4.466;2023-01-13T00:34:59;29.63;;;5.45;;
66272;SDS011;58450;52.150;4.466;2023-01-13T00:37:26;32.20;;;5.72;;
66272;SDS011;58450;52.150;4.466;2023-01-13T00:39:54;33.22;;;5.57;;
66272;SDS011;58450;52.150;4.466;2023-01-13T00:42:22;31.42;;;5.72;;
66272;SDS011;58450;52.150;4.466;2023-01-13T00:45:07;32.80;;;5.15;;
66272;SDS011;58450;52.150;4.466;2023-01-13T00:47:35;29.77;;;5.53;;
66272;SDS011;58450;52.150;4.466;2023-01-13T00:50:04;28.30;;;5.10;;
66272;SDS011;58450;52.150;4.466;2023-01-13T00:52:32;34.47;;;5.68;;
66272;SDS011;58450;52.150;4.466;2023-01-13T00:55:00;32.88;;;5.78;;
66272;SDS011;58450;52.150;4.466;2023-01-13T00:57:27;29.88;;;6.05;;
66272;SDS011;58450;52.150;4.466;2023-01-13T00:59:55;33.45;;;5.55;;
66272;SDS011;58450;52.150;4.466;2023-01-13T01:02:22;28.77;;;5.63;;
66272;SDS011;58450;52.150;4.466;2023-01-13T01:04:50;36.83;;;6.88;;
66272;SDS011;58450;52.150;4.466;2023-01-13T01:07:18;32.03;;;5.35;;
66272;SDS011;58450;52.150;4.466;2023-01-13T01:09:46;33.60;;;5.45;;
66272;SDS011;58450;52.150;4.466;2023-01-13T01:12:15;34.10;;;5.55;;
66272;SDS011;58450;52.150;4.466;2023-01-13T01:14:42;31.58;;;5.38;;
66272;SDS011;58450;52.150;4.466;2023-01-13T01:17:10;30.23;;;5.53;;
66272;SDS011;58450;52.150;4.466;2023-01-13T01:19:37;32.88;;;5.57;;
66272;SDS011;58450;52.150;4.466;2023-01-13T01:22:05;31.42;;;5.13;;
66272;SDS011;58450;52.150;4.466;2023-01-13T01:24:33;24.88;;;5.05;;
66272;SDS011;58450;52.150;4.466;2023-01-13T01:27:01;35.90;;;6.00;;
66272;SDS011;58450;52.150;4.466;2023-01-13T01:29:28;29.45;;;5.70;;
66272;SDS011;58450;52.150;4.466;2023-01-13T01:31:56;32.85;;;5.75;;
66272;SDS011;58450;52.150;4.466;2023-01-13T01:34:24;38.58;;;5.90;;
66272;SDS011;58450;52.150;4.466;2023-01-13T01:36:51;36.58;;;5.78;;
66272;SDS011;58450;52.150;4.466;2023-01-13T01:39:19;41.63;;;5.90;;
66272;SDS011;58450;52.150;4.466;2023-01-13T01:41:48;34.92;;;5.88;;
66272;SDS011;58450;52.150;4.466;2023-01-13T01:44:49;35.92;;;6.18;;
66272;SDS011;58450;52.150;4.466;2023-01-13T01:47:25;36.78;;;5.97;;
66272;SDS011;58450;52.150;4.466;2023-01-13T01:49:56;41.60;;;6.75;;
66272;SDS011;58450;52.150;4.466;2023-01-13T01:52:27;42.78;;;6.55;;
66272;SDS011;58450;52.150;4.466;2023-01-13T01:55:02;34.97;;;6.45;;
66272;SDS011;58450;52.150;4.466;2023-01-13T01:57:37;33.50;;;5.60;;
66272;SDS011;58450;52.150;4.466;2023-01-13T02:00:10;34.42;;;5.57;;
66272;SDS011;58450;52.150;4.466;2023-01-13T02:02:39;47.83;;;7.15;;
66272;SDS011;58450;52.150;4.466;2023-01-13T02:05:11;40.10;;;6.80;;
66272;SDS011;58450;52.150;4.466;2023-01-13T02:07:40;34.58;;;5.82;;
66272;SDS011;58450;52.150;4.466;2023-01-13T02:10:12;33.90;;;5.85;;
66272;SDS011;58450;52.150;4.466;2023-01-13T02:12:45;39.55;;;5.75;;
66272;SDS011;58450;52.150;4.466;2023-01-13T02:15:15;37.60;;;6.75;;
66272;SDS011;58450;52.150;4.466;2023-01-13T02:24:21;38.78;;;6.75;;
66272;SDS011;58450;52.150;4.466;2023-01-13T02:27:52;35.05;;;5.63;;
66272;SDS011;58450;52.150;4.466;2023-01-13T02:30:41;42.50;;;6.80;;
66272;SDS011;58450;52.150;4.466;2023-01-13T02:33:38;39.38;;;7.03;;
66272;SDS011;58450;52.150;4.466;2023-01-13T02:36:18;41.88;;;6.57;;
66272;SDS011;58450;52.150;4.466;2023-01-13T02:38:59;38.47;;;5.88;;
66272;SDS011;58450;52.150;4.466;2023-01-13T02:41:35;41.85;;;6.22;;
66272;SDS011;58450;52.150;4.466;2023-01-13T02:44:28;40.42;;;6.03;;
66272;SDS011;58450;52.150;4.466;2023-01-13T02:47:11;35.78;;;6.10;;
66272;SDS011;58450;52.150;4.466;2023-01-13T02:49:46;32.90;;;6.63;;
66272;SDS011;58450;52.150;4.466;2023-01-13T02:52:19;41.17;;;6.73;;
66272;SDS011;58450;52.150;4.466;2023-01-13T02:54:55;44.55;;;5.93;;
66272;SDS011;58450;52.150;4.466;2023-01-13T02:57:28;34.63;;;6.13;;
66272;SDS011;58450;52.150;4.466;2023-01-13T03:00:02;40.10;;;6.38;;
66272;SDS011;58450;52.150;4.466;2023-01-13T03:02:34;45.92;;;7.05;;
66272;SDS011;58450;52.150;4.466;2023-01-13T03:05:01;36.80;;;6.25;;
66272;SDS011;58450;52.150;4.466;2023-01-13T03:10:36;45.28;;;7.85;;
66272;SDS011;58450;52.150;4.466;2023-01-13T03:13:25;46.35;;;7.38;;
66272;SDS011;58450;52.150;4.466;2023-01-13T03:16:19;40.80;;;7.47;;
66272;SDS011;58450;52.150;4.466;2023-01-13T03:19:03;42.50;;;6.90;;
66272;SDS011;58450;52.150;4.466;2023-01-13T03:21:50;39.38;;;6.65;;
66272;SDS011;58450;52.150;4.466;2023-01-13T03:24:27;35.15;;;6.22;;
66272;SDS011;58450;52.150;4.466;2023-01-13T03:27:03;36.03;;;6.53;;
66272;SDS011;58450;52.150;4.466;2023-01-13T03:29:39;34.17;;;5.78;;
66272;SDS011;58450;52.150;4.466;2023-01-13T03:32:12;41.58;;;7.15;;
66272;SDS011;58450;52.150;4.466;2023-01-13T03:34:49;36.35;;;6.00;;
66272;SDS011;58450;52.150;4.466;2023-01-13T03:37:27;33.70;;;6.10;;
66272;SDS011;58450;52.150;4.466;2023-01-13T03:40:03;39.10;;;6.03;;
66272;SDS011;58450;52.150;4.466;2023-01-13T03:42:40;38.70;;;5.45;;
66272;SDS011;58450;52.150;4.466;2023-01-13T03:45:33;31.70;;;4.97;;
66272;SDS011;58450;52.150;4.466;2023-01-13T03:48:05;29.63;;;5.22;;
66272;SDS011;58450;52.150;4.466;2023-01-13T03:50:40;31.80;;;5.38;;
66272;SDS011;58450;52.150;4.466;2023-01-13T03:53:17;33.63;;;5.10;;
66272;SDS011;58450;52.150;4.466;2023-01-13T03:55:54;34.05;;;5.30;;
66272;SDS011;58450;52.150;4.466;2023-01-13T03:58:30;29.83;;;5.00;;
66272;SDS011;58450;52.150;4.466;2023-01-13T04:01:04;23.77;;;4.15;;
66272;SDS011;58450;52.150;4.466;2023-01-13T04:03:41;27.08;;;4.40;;
66272;SDS011;58450;52.150;4.466;2023-01-13T04:06:22;27.70;;;4.20;;
66272;SDS011;58450;52.150;4.466;2023-01-13T04:09:01;23.40;;;4.47;;
66272;SDS011;58450;52.150;4.466;2023-01-13T04:11:41;26.15;;;4.00;;
66272;SDS011;58450;52.150;4.466;2023-01-13T04:14:15;24.00;;;4.07;;
66272;SDS011;58450;52.150;4.466;2023-01-13T04:16:47;24.00;;;4.40;;
66272;SDS011;58450;52.150;4.466;2023-01-13T04:19:15;21.05;;;4.07;;
66272;SDS011;58450;52.150;4.466;2023-01-13T04:21:44;25.42;;;4.45;;
66272;SDS011;58450;52.150;4.466;2023-01-13T04:24:12;19.33;;;3.58;;
66272;SDS011;58450;52.150;4.466;2023-01-13T04:26:39;21.10;;;3.83;;
66272;SDS011;58450;52.150;4.466;2023-01-13T04:29:07;23.08;;;4.22;;
66272;SDS011;58450;52.150;4.466;2023-01-13T04:31:34;23.65;;;3.65;;
66272;SDS011;58450;52.150;4.466;2023-01-13T04:34:02;18.08;;;3.38;;
66272;SDS011;58450;52.150;4.466;2023-01-13T04:36:30;15.73;;;2.88;;
66272;SDS011;58450;52.150;4.466;2023-01-13T04:38:59;20.98;;;3.33;;
66272;SDS011;58450;52.150;4.466;2023-01-13T04:41:26;16.55;;;2.97;;
66272;SDS011;58450;52.150;4.466;2023-01-13T04:44:14;20.73;;;4.32;;
66272;SDS011;58450;52.150;4.466;2023-01-13T04:46:41;20.10;;;2.88;;
66272;SDS011;58450;52.150;4.466;2023-01-13T04:49:08;14.27;;;2.63;;
66272;SDS011;58450;52.150;4.466;2023-01-13T04:51:36;21.08;;;3.85;;
66272;SDS011;58450;52.150;4.466;2023-01-13T04:54:05;21.33;;;3.45;;
66272;SDS011;58450;52.150;4.466;2023-01-13T04:56:32;19.75;;;4.03;;
66272;SDS011;58450;52.150;4.466;2023-01-13T04:59:00;21.17;;;3.22;;
66272;SDS011;58450;52.150;4.466;2023-01-13T05:01:27;23.08;;;3.83;;
66272;SDS011;58450;52.150;4.466;2023-01-13T05:03:55;20.98;;;3.47;;
66272;SDS011;58450;52.150;4.466;2023-01-13T05:06:22;19.92;;;3.60;;
66272;SDS011;58450;52.150;4.466;2023-01-13T05:08:49;19.88;;;3.55;;
66272;SDS011;58450;52.150;4.466;2023-01-13T05:11:18;21.45;;;3.58;;
66272;SDS011;58450;52.150;4.466;2023-01-13T05:14:03;21.52;;;3.75;;
66272;SDS011;58450;52.150;4.466;2023-01-13T05:16:49;22.85;;;3.20;;
66272;SDS011;58450;52.150;4.466;2023-01-13T05:19:26;18.25;;;3.47;;
66272;SDS011;58450;52.150;4.466;2023-01-13T05:21:54;28.42;;;4.10;;
66272;SDS011;58450;52.150;4.466;2023-01-13T05:24:39;21.17;;;3.60;;
66272;SDS011;58450;52.150;4.466;2023-01-13T05:27:26;19.70;;;3.53;;
66272;SDS011;58450;52.150;4.466;2023-01-13T05:29:54;27.75;;;4.07;;
66272;SDS011;58450;52.150;4.466;2023-01-13T05:32:22;25.63;;;4.07;;
66272;SDS011;58450;52.150;4.466;2023-01-13T05:34:52;23.40;;;3.92;;
66272;SDS011;58450;52.150;4.466;2023-01-13T05:37:20;23.73;;;4.13;;
66272;SDS011;58450;52.150;4.466;2023-01-13T05:39:48;22.42;;;3.95;;
66272;SDS011;58450;52.150;4.466;2023-01-13T05:42:35;24.98;;;3.75;;
66272;SDS011;58450;52.150;4.466;2023-01-13T05:45:20;24.90;;;4.03;;
66272;SDS011;58450;52.150;4.466;2023-01-13T05:47:48;22.80;;;3.53;;
66272;SDS011;58450;52.150;4.466;2023-01-13T05:50:16;23.13;;;4.40;;
66272;SDS011;58450;52.150;4.466;2023-01-13T05:52:44;24.33;;;4.35;;
66272;SDS011;58450;52.150;4.466;2023-01-13T05:55:11;26.77;;;4.75;;
66272;SDS011;58450;52.150;4.466;2023-01-13T05:57:40;18.77;;;3.63;;
66272;SDS011;58450;52.150;4.466;2023-01-13T06:00:08;27.40;;;4.90;;
66272;SDS011;58450;52.150;4.466;2023-01-13T06:02:37;24.33;;;3.70;;
66272;SDS011;58450;52.150;4.466;2023-01-13T06:05:05;26.48;;;4.40;;
66272;SDS011;58450;52.150;4.466;2023-01-13T06:07:33;22.77;;;4.10;;
66272;SDS011;58450;52.150;4.466;2023-01-13T06:10:00;21.20;;;4.05;;
66272;SDS011;58450;52.150;4.466;2023-01-13T06:12:28;24.52;;;4.32;;
66272;SDS011;58450;52.150;4.466;2023-01-13T06:14:57;27.55;;;3.92;;
66272;SDS011;58450;52.150;4.466;2023-01-13T06:17:24;22.65;;;3.50;;
66272;SDS011;58450;52.150;4.466;2023-01-13T06:19:51;16.60;;;3.25;;
66272;SDS011;58450;52.150;4.466;2023-01-13T06:22:20;21.30;;;3.30;;
66272;SDS011;58450;52.150;4.466;2023-01-13T06:24:52;23.20;;;4.20;;
66272;SDS011;58450;52.150;4.466;2023-01-13T06:27:20;23.20;;;4.13;;
66272;SDS011;58450;52.150;4.466;2023-01-13T06:29:49;23.10;;;3.60;;
66272;SDS011;58450;52.150;4.466;2023-01-13T06:32:19;25.80;;;4.40;;
66272;SDS011;58450;52.150;4.466;2023-01-13T06:34:55;15.50;;;2.92;;
66272;SDS011;58450;52.150;4.466;2023-01-13T06:37:28;24.38;;;3.78;;
66272;SDS011;58450;52.150;4.466;2023-01-13T06:39:58;29.98;;;4.20;;
66272;SDS011;58450;52.150;4.466;2023-01-13T06:42:29;28.85;;;5.07;;
66272;SDS011;58450;52.150;4.466;2023-01-13T06:45:19;21.67;;;3.65;;
66272;SDS011;58450;52.150;4.466;2023-01-13T06:47:50;23.27;;;3.95;;
66272;SDS011;58450;52.150;4.466;2023-01-13T06:50:19;23.60;;;3.97;;
66272;SDS011;58450;52.150;4.466;2023-01-13T06:52:46;25.48;;;4.53;;
66272;SDS011;58450;52.150;4.466;2023-01-13T06:55:14;23.17;;;4.40;;
66272;SDS011;58450;52.150;4.466;2023-01-13T06:57:48;21.65;;;3.70;;
66272;SDS011;58450;52.150;4.466;2023-01-13T07:00:18;27.40;;;4.15;;
66272;SDS011;58450;52.150;4.466;2023-01-13T07:02:47;21.42;;;3.75;;
66272;SDS011;58450;52.150;4.466;2023-01-13T07:05:16;25.60;;;4.35;;
66272;SDS011;58450;52.150;4.466;2023-01-13T07:07:45;25.60;;;4.22;;
66272;SDS011;58450;52.150;4.466;2023-01-13T07:10:13;30.88;;;4.75;;
66272;SDS011;58450;52.150;4.466;2023-01-13T07:12:47;22.90;;;4.32;;
66272;SDS011;58450;52.150;4.466;2023-01-13T07:15:33;23.30;;;3.67;;
66272;SDS011;58450;52.150;4.466;2023-01-13T07:18:01;23.58;;;4.47;;
66272;SDS011;58450;52.150;4.466;2023-01-13T07:20:30;27.20;;;4.45;;
66272;SDS011;58450;52.150;4.466;2023-01-13T07:22:58;21.30;;;4.10;;
66272;SDS011;58450;52.150;4.466;2023-01-13T07:25:26;25.15;;;4.70;;
66272;SDS011;58450;52.150;4.466;2023-01-13T07:27:56;27.13;;;4.65;;
66272;SDS011;58450;52.150;4.466;2023-01-13T07:30:24;30.30;;;4.28;;
66272;SDS011;58450;52.150;4.466;2023-01-13T07:32:51;26.67;;;3.80;;
66272;SDS011;58450;52.150;4.466;2023-01-13T07:35:18;25.63;;;4.30;;
66272;SDS011;58450;52.150;4.466;2023-01-13T07:37:49;27.35;;;4.45;;
66272;SDS011;58450;52.150;4.466;2023-01-13T07:40:17;26.65;;;3.63;;
66272;SDS011;58450;52.150;4.466;2023-01-13T07:42:44;25.25;;;4.07;;
66272;SDS011;58450;52.150;4.466;2023-01-13T07:45:35;33.58;;;5.00;;
66272;SDS011;58450;52.150;4.466;2023-01-13T07:48:02;24.63;;;3.80;;
66272;SDS011;58450;52.150;4.466;2023-01-13T07:50:30;20.67;;;4.13;;
66272;SDS011;58450;52.150;4.466;2023-01-13T07:52:59;31.63;;;4.97;;
66272;SDS011;58450;52.150;4.466;2023-01-13T07:55:27;23.58;;;4.57;;
66272;SDS011;58450;52.150;4.466;2023-01-13T07:57:54;24.95;;;3.92;;
66272;SDS011;58450;52.150;4.466;2023-01-13T08:00:22;21.90;;;4.53;;
66272;SDS011;58450;52.150;4.466;2023-01-13T08:02:50;27.55;;;4.57;;
66272;SDS011;58450;52.150;4.466;2023-01-13T08:05:17;27.73;;;4.90;;
66272;SDS011;58450;52.150;4.466;2023-01-13T08:07:45;26.98;;;4.38;;
66272;SDS011;58450;52.150;4.466;2023-01-13T08:10:14;30.88;;;4.55;;
66272;SDS011;58450;52.150;4.466;2023-01-13T08:12:42;23.92;;;4.35;;
66272;SDS011;58450;52.150;4.466;2023-01-13T08:15:27;25.85;;;4.32;;
66272;SDS011;58450;52.150;4.466;2023-01-13T08:17:55;23.67;;;4.20;;
66272;SDS011;58450;52.150;4.466;2023-01-13T08:20:24;24.80;;;4.03;;
66272;SDS011;58450;52.150;4.466;2023-01-13T08:22:54;28.95;;;4.43;;
66272;SDS011;58450;52.150;4.466;2023-01-13T08:25:23;34.58;;;4.57;;
66272;SDS011;58450;52.150;4.466;2023-01-13T08:27:52;30.73;;;5.30;;
66272;SDS011;58450;52.150;4.466;2023-01-13T08:30:20;26.45;;;4.90;;
66272;SDS011;58450;52.150;4.466;2023-01-13T08:32:49;27.55;;;4.78;;
66272;SDS011;58450;52.150;4.466;2023-01-13T08:35:16;23.20;;;4.55;;
66272;SDS011;58450;52.150;4.466;2023-01-13T08:37:45;30.58;;;4.63;;
66272;SDS011;58450;52.150;4.466;2023-01-13T08:40:14;26.33;;;4.57;;
66272;SDS011;58450;52.150;4.466;2023-01-13T08:42:44;33.25;;;4.72;;
66272;SDS011;58450;52.150;4.466;2023-01-13T08:45:12;31.27;;;4.95;;
66272;SDS011;58450;52.150;4.466;2023-01-13T08:47:40;30.58;;;4.75;;
66272;SDS011;58450;52.150;4.466;2023-01-13T08:50:08;28.33;;;4.82;;
66272;SDS011;58450;52.150;4.466;2023-01-13T08:52:37;30.63;;;4.07;;
66272;SDS011;58450;52.150;4.466;2023-01-13T08:55:05;22.95;;;4.45;;
66272;SDS011;58450;52.150;4.466;2023-01-13T08:57:34;34.05;;;5.07;;
66272;SDS011;58450;52.150;4.466;2023-01-13T09:00:03;26.27;;;4.30;;
66272;SDS011;58450;52.150;4.466;2023-01-13T09:02:34;30.77;;;4.05;;
66272;SDS011;58450;52.150;4.466;2023-01-13T09:05:03;31.00;;;4.75;;
66272;SDS011;58450;52.150;4.466;2023-01-13T09:07:32;27.60;;;4.53;;
66272;SDS011;58450;52.150;4.466;2023-01-13T09:10:01;25.83;;;4.93;;
66272;SDS011;58450;52.150;4.466;2023-01-13T09:12:29;28.75;;;4.47;;
66272;SDS011;58450;52.150;4.466;2023-01-13T09:15:15;22.52;;;3.95;;
66272;SDS011;58450;52.150;4.466;2023-01-13T09:17:43;26.30;;;4.10;;
66272;SDS011;58450;52.150;4.466;2023-01-13T09:20:11;29.58;;;4.47;;
66272;SDS011;58450;52.150;4.466;2023-01-13T09:22:39;25.98;;;4.93;;
66272;SDS011;58450;52.150;4.466;2023-01-13T09:25:07;25.10;;;4.50;;
66272;SDS011;58450;52.150;4.466;2023-01-13T09:27:37;37.13;;;5.65;;
66272;SDS011;58450;52.150;4.466;2023-01-13T09:30:05;27.13;;;4.55;;
66272;SDS011;58450;52.150;4.466;2023-01-13T09:32:36;22.67;;;3.97;;
66272;SDS011;58450;52.150;4.466;2023-01-13T09:35:04;25.33;;;4.18;;
66272;SDS011;58450;52.150;4.466;2023-01-13T09:37:33;28.50;;;4.20;;
66272;SDS011;58450;52.150;4.466;2023-01-13T09:40:05;21.63;;;4.10;;
66272;SDS011;58450;52.150;4.466;2023-01-13T09:42:40;27.23;;;5.07;;
66272;SDS011;58450;52.150;4.466;2023-01-13T09:45:31;26.90;;;3.60;;
66272;SDS011;58450;52.150;4.466;2023-01-13T09:48:09;24.00;;;3.55;;
66272;SDS011;58450;52.150;4.466;2023-01-13T09:50:47;23.00;;;3.83;;
66272;SDS011;58450;52.150;4.466;2023-01-13T09:53:26;21.52;;;3.83;;
66272;SDS011;58450;52.150;4.466;2023-01-13T09:55:59;24.73;;;3.60;;
66272;SDS011;58450;52.150;4.466;2023-01-13T09:58:27;20.98;;;3.60;;
66272;SDS011;58450;52.150;4.466;2023-01-13T10:00:59;20.77;;;4.25;;
66272;SDS011;58450;52.150;4.466;2023-01-13T10:03:43;21.05;;;3.50;;
66272;SDS011;58450;52.150;4.466;2023-01-13T10:06:12;24.20;;;3.63;;
66272;SDS011;58450;52.150;4.466;2023-01-13T10:08:46;23.73;;;3.90;;
66272;SDS011;58450;52.150;4.466;2023-01-13T10:11:15;21.23;;;3.92;;
66272;SDS011;58450;52.150;4.466;2023-01-13T10:14:09;22.23;;;3.33;;
66272;SDS011;58450;52.150;4.466;2023-01-13T10:16:45;26.05;;;3.92;;
66272;SDS011;58450;52.150;4.466;2023-01-13T10:19:23;21.85;;;3.72;;
66272;SDS011;58450;52.150;4.466;2023-01-13T10:22:03;20.73;;;3.70;;
66272;SDS011;58450;52.150;4.466;2023-01-13T10:25:08;19.95;;;3.97;;
66272;SDS011;58450;52.150;4.466;2023-01-13T10:27:51;22.70;;;3.42;;
66272;SDS011;58450;52.150;4.466;2023-01-13T10:30:22;15.52;;;3.08;;
66272;SDS011;58450;52.150;4.466;2023-01-13T10:32:56;20.00;;;3.70;;
66272;SDS011;58450;52.150;4.466;2023-01-13T10:38:21;18.47;;;3.60;;
66272;SDS011;58450;52.150;4.466;2023-01-13T10:40:52;22.08;;;3.65;;
66272;SDS011;58450;52.150;4.466;2023-01-13T10:43:23;23.73;;;3.58;;
66272;SDS011;58450;52.150;4.466;2023-01-13T10:45:55;19.92;;;3.35;;
66272;SDS011;58450;52.150;4.466;2023-01-13T10:48:33;21.08;;;3.60;;
66272;SDS011;58450;52.150;4.466;2023-01-13T10:53:57;20.52;;;3.40;;
66272;SDS011;58450;52.150;4.466;2023-01-13T10:56:29;18.60;;;3.35;;
66272;SDS011;58450;52.150;4.466;2023-01-13T10:59:12;19.15;;;3.28;;
66272;SDS011;58450;52.150;4.466;2023-01-13T11:01:51;20.25;;;4.88;;
66272;SDS011;58450;52.150;4.466;2023-01-13T11:04:27;20.15;;;3.33;;
66272;SDS011;58450;52.150;4.466;2023-01-13T11:07:03;20.20;;;3.50;;
66272;SDS011;58450;52.150;4.466;2023-01-13T11:09:46;22.20;;;3.55;;
66272;SDS011;58450;52.150;4.466;2023-01-13T11:12:28;24.35;;;3.92;;
66272;SDS011;58450;52.150;4.466;2023-01-13T11:14:59;24.17;;;3.50;;
66272;SDS011;58450;52.150;4.466;2023-01-13T11:17:34;22.17;;;3.72;;
66272;SDS011;58450;52.150;4.466;2023-01-13T11:20:14;15.38;;;3.25;;
66272;SDS011;58450;52.150;4.466;2023-01-13T11:22:55;25.08;;;3.15;;
66272;SDS011;58450;52.150;4.466;2023-01-13T11:25:29;19.67;;;3.50;;
66272;SDS011;58450;52.150;4.466;2023-01-13T11:28:14;17.48;;;3.10;;
66272;SDS011;58450;52.150;4.466;2023-01-13T11:31:04;19.85;;;3.28;;
66272;SDS011;58450;52.150;4.466;2023-01-13T11:33:44;17.25;;;2.92;;
66272;SDS011;58450;52.150;4.466;2023-01-13T11:36:20;26.30;;;3.45;;
66272;SDS011;58450;52.150;4.466;2023-01-13T11:38:56;23.98;;;3.63;;
66272;SDS011;58450;52.150;4.466;2023-01-13T11:41:30;19.52;;;3.60;;
66272;SDS011;58450;52.150;4.466;2023-01-13T11:44:16;18.52;;;3.10;;
66272;SDS011;58450;52.150;4.466;2023-01-13T11:46:48;16.48;;;3.17;;
66272;SDS011;58450;52.150;4.466;2023-01-13T11:49:21;19.50;;;2.80;;
66272;SDS011;58450;52.150;4.466;2023-01-13T11:51:55;18.20;;;3.22;;
66272;SDS011;58450;52.150;4.466;2023-01-13T11:54:41;19.20;;;3.13;;
66272;SDS011;58450;52.150;4.466;2023-01-13T11:57:33;18.45;;;3.00;;
66272;SDS011;58450;52.150;4.466;2023-01-13T12:03:23;24.13;;;3.35;;
66272;SDS011;58450;52.150;4.466;2023-01-13T12:06:08;19.73;;;3.40;;
66272;SDS011;58450;52.150;4.466;2023-01-13T12:08:55;19.00;;;3.45;;
66272;SDS011;58450;52.150;4.466;2023-01-13T12:11:39;20.88;;;3.95;;
66272;SDS011;58450;52.150;4.466;2023-01-13T12:14:42;16.23;;;3.17;;
66272;SDS011;58450;52.150;4.466;2023-01-13T12:17:29;17.58;;;2.88;;
66272;SDS011;58450;52.150;4.466;2023-01-13T12:20:13;19.70;;;3.22;;
66272;SDS011;58450;52.150;4.466;2023-01-13T12:22:56;16.88;;;3.22;;
66272;SDS011;58450;52.150;4.466;2023-01-13T12:25:33;15.13;;;3.00;;
66272;SDS011;58450;52.150;4.466;2023-01-13T12:28:12;19.73;;;3.50;;
66272;SDS011;58450;52.150;4.466;2023-01-13T12:30:46;21.45;;;3.35;;
66272;SDS011;58450;52.150;4.466;2023-01-13T12:33:23;13.82;;;2.72;;
66272;SDS011;58450;52.150;4.466;2023-01-13T12:36:05;14.00;;;2.75;;
66272;SDS011;58450;52.150;4.466;2023-01-13T12:38:43;15.38;;;3.15;;
66272;SDS011;58450;52.150;4.466;2023-01-13T12:41:15;18.33;;;3.00;;
66272;SDS011;58450;52.150;4.466;2023-01-13T12:44:00;18.75;;;3.90;;
66272;SDS011;58450;52.150;4.466;2023-01-13T12:46:49;15.32;;;2.70;;
66272;SDS011;58450;52.150;4.466;2023-01-13T12:49:25;19.67;;;3.45;;
66272;SDS011;58450;52.150;4.466;2023-01-13T12:52:03;21.85;;;3.42;;
66272;SDS011;58450;52.150;4.466;2023-01-13T12:55:00;18.95;;;3.45;;
66272;SDS011;58450;52.150;4.466;2023-01-13T12:57:37;19.40;;;3.38;;
66272;SDS011;58450;52.150;4.466;2023-01-13T13:00:13;17.67;;;3.17;;
66272;SDS011;58450;52.150;4.466;2023-01-13T13:02:44;21.23;;;3.60;;
66272;SDS011;58450;52.150;4.466;2023-01-13T13:05:54;16.85;;;3.17;;
66272;SDS011;58450;52.150;4.466;2023-01-13T13:08:40;13.75;;;3.00;;
66272;SDS011;58450;52.150;4.466;2023-01-13T13:11:36;22.17;;;4.45;;
66272;SDS011;58450;52.150;4.466;2023-01-13T13:20:53;21.20;;;3.35;;
66272;SDS011;58450;52.150;4.466;2023-01-13T13:23:25;18.98;;;3.60;;
66272;SDS011;58450;52.150;4.466;2023-01-13T13:26:02;21.15;;;3.85;;
66272;SDS011;58450;52.150;4.466;2023-01-13T13:28:43;14.15;;;2.78;;
66272;SDS011;58450;52.150;4.466;2023-01-13T13:31:30;25.08;;;3.78;;
66272;SDS011;58450;52.150;4.466;2023-01-13T13:34:25;19.65;;;3.35;;
66272;SDS011;58450;52.150;4.466;2023-01-13T13:37:15;19.40;;;3.13;;
66272;SDS011;58450;52.150;4.466;2023-01-13T13:40:23;23.20;;;3.63;;
66272;SDS011;58450;52.150;4.466;2023-01-13T13:43:09;19.65;;;3.63;;
66272;SDS011;58450;52.150;4.466;2023-01-13T13:45:58;20.58;;;4.00;;
66272;SDS011;58450;52.150;4.466;2023-01-13T13:48:50;20.52;;;3.33;;
66272;SDS011;58450;52.150;4.466;2023-01-13T13:51:22;22.23;;;3.55;;
66272;SDS011;58450;52.150;4.466;2023-01-13T13:53:56;17.08;;;2.63;;
66272;SDS011;58450;52.150;4.466;2023-01-13T13:56:27;20.15;;;3.25;;
66272;SDS011;58450;52.150;4.466;2023-01-13T13:59:02;17.92;;;3.75;;
66272;SDS011;58450;52.150;4.466;2023-01-13T14:01:31;21.50;;;3.80;;
66272;SDS011;58450;52.150;4.466;2023-01-13T14:04:05;20.83;;;3.60;;
66272;SDS011;58450;52.150;4.466;2023-01-13T14:06:55;24.95;;;4.15;;
66272;SDS011;58450;52.150;4.466;2023-01-13T14:09:25;18.85;;;3.50;;
66272;SDS011;58450;52.150;4.466;2023-01-13T14:11:55;20.30;;;3.40;;
66272;SDS011;58450;52.150;4.466;2023-01-13T14:14:27;20.52;;;3.80;;
66272;SDS011;58450;52.150;4.466;2023-01-13T14:16:55;25.10;;;3.45;;
66272;SDS011;58450;52.150;4.466;2023-01-13T14:19:25;20.55;;;3.45;;
66272;SDS011;58450;52.150;4.466;2023-01-13T14:21:58;18.23;;;3.15;;
66272;SDS011;58450;52.150;4.466;2023-01-13T14:24:28;20.08;;;3.35;;
66272;SDS011;58450;52.150;4.466;2023-01-13T14:27:07;20.90;;;3.70;;
66272;SDS011;58450;52.150;4.466;2023-01-13T14:29:39;19.27;;;3.63;;
66272;SDS011;58450;52.150;4.466;2023-01-13T14:32:07;16.90;;;2.95;;
66272;SDS011;58450;52.150;4.466;2023-01-13T14:34:40;20.92;;;3.28;;
66272;SDS011;58450;52.150;4.466;2023-01-13T14:37:21;18.40;;;3.42;;
66272;SDS011;58450;52.150;4.466;2023-01-13T14:39:51;17.90;;;3.07;;
66272;SDS011;58450;52.150;4.466;2023-01-13T14:42:19;21.92;;;3.85;;
66272;SDS011;58450;52.150;4.466;2023-01-13T14:44:47;21.98;;;3.45;;
66272;SDS011;58450;52.150;4.466;2023-01-13T14:47:18;21.48;;;3.90;;
66272;SDS011;58450;52.150;4.466;2023-01-13T14:49:55;15.10;;;3.33;;
66272;SDS011;58450;52.150;4.466;2023-01-13T14:52:30;18.33;;;3.33;;
66272;SDS011;58450;52.150;4.466;2023-01-13T14:55:12;20.38;;;3.90;;
66272;SDS011;58450;52.150;4.466;2023-01-13T14:57:49;22.38;;;3.83;;
66272;SDS011;58450;52.150;4.466;2023-01-13T15:00:21;25.10;;;4.18;;
66272;SDS011;58450;52.150;4.466;2023-01-13T15:03:02;19.90;;;3.50;;
66272;SDS011;58450;52.150;4.466;2023-01-13T15:05:33;26.10;;;3.85;;
66272;SDS011;58450;52.150;4.466;2023-01-13T15:08:30;21.25;;;3.28;;
66272;SDS011;58450;52.150;4.466;2023-01-13T15:11:03;23.92;;;3.85;;
66272;SDS011;58450;52.150;4.466;2023-01-13T15:13:41;20.95;;;3.63;;
66272;SDS011;58450;52.150;4.466;2023-01-13T15:16:15;20.42;;;3.38;;
66272;SDS011;58450;52.150;4.466;2023-01-13T15:18:46;21.52;;;3.38;;
66272;SDS011;58450;52.150;4.466;2023-01-13T15:21:14;19.30;;;3.10;;
66272;SDS011;58450;52.150;4.466;2023-01-13T15:23:43;23.40;;;3.55;;
66272;SDS011;58450;52.150;4.466;2023-01-13T15:26:14;22.13;;;3.65;;
66272;SDS011;58450;52.150;4.466;2023-01-13T15:28:46;20.23;;;3.63;;
66272;SDS011;58450;52.150;4.466;2023-01-13T15:31:15;17.02;;;3.15;;
66272;SDS011;58450;52.150;4.466;2023-01-13T15:33:42;18.50;;;2.88;;
66272;SDS011;58450;52.150;4.466;2023-01-13T15:36:16;24.45;;;3.33;;
66272;SDS011;58450;52.150;4.466;2023-01-13T15:38:50;22.95;;;3.80;;